Latest Weather Observations for Hamilton

IDV60801

Issued at 9:42 pm EST Thursday 20 June 2019 (issued every 10 minutes, with the page automatically refreshed every 10 minutes)

About weather observations | Map of weather stations | Latest weather observations for VIC | Other Formats
Station Details ID: 090173 Name: HAMILTON AIRPORT Lat: -37.65 Lon: 142.06 Height: 241.1 m
Data from the previous 72 hours. | See also: Recent months at Hamilton
Date/Time
EST
Temp
°C
App
Temp
°C
Dew
Point
°C
Rel
Hum
%
Delta-T
°C
Wind Press
QNH
hPa
Press
MSL
hPa
Rain since
9am
mm
Dir  Spd
km/h
Gust
km/h
Spd
kts
Gust
kts
20/09:30pm 4.2 1.3 2.7 90 0.6 SW 7 7 4 4 1028.1 1028.6 0.0
20/09:00pm 3.7 0.7 2.1 89 0.6 SW 7 9 4 5 1028.0 1028.5 0.0
20/08:30pm 4.7 1.8 2.7 87 0.8 SSW 7 9 4 5 1027.8 1028.2 0.0
20/08:00pm 4.4 1.7 2.4 87 0.8 SW 6 7 3 4 1027.6 1028.0 0.0
20/07:30pm 4.7 2.0 2.6 86 0.9 SSW 6 7 3 4 1027.6 1028.0 0.0
20/07:00pm 4.6 0.9 2.6 87 0.8 SSW 11 11 6 6 1027.3 1027.7 0.0
20/06:30pm 5.7 2.6 3.4 85 1.0 SSW 9 9 5 5 1027.0 1027.4 0.0
20/06:00pm 5.5 1.9 3.2 85 1.0 SW 11 13 6 7 1026.7 1027.1 0.0
20/05:30pm 5.8 2.6 3.1 83 1.1 S 9 15 5 8 1026.4 1026.8 0.0
20/05:00pm 6.7 3.5 3.1 78 1.5 SSW 9 11 5 6 1026.2 1026.6 0.0
20/04:30pm 8.5 4.6 3.6 71 2.1 SSW 13 17 7 9 1026.0 1026.4 0.0
20/04:00pm 9.9 6.0 3.2 63 2.9 W 13 15 7 8 1025.8 1026.2 0.0
20/03:30pm 9.9 6.0 3.2 63 2.9 WSW 13 17 7 9 1025.7 1026.1 0.0
20/03:00pm 8.5 5.0 3.4 70 2.2 SW 11 15 6 8 1025.7 1026.1 0.0
20/02:30pm 10.0 5.2 2.8 61 3.1 SW 17 20 9 11 1025.7 1026.1 0.0
20/02:00pm 10.1 6.1 2.9 61 3.1 SW 13 20 7 11 1025.7 1026.1 0.0
20/01:30pm 9.6 6.0 3.1 64 2.8 W 11 15 6 8 1025.9 1026.3 0.0
20/01:00pm 9.6 6.2 4.2 69 2.4 WSW 11 15 6 8 1026.2 1026.6 0.0
20/12:30pm 9.4 5.9 3.6 67 2.6 SW 11 15 6 8 1026.6 1027.0 0.0
20/12:00pm 9.1 5.5 3.1 66 2.6 SW 11 15 6 8 1026.9 1027.3 0.0
20/11:30am 8.8 5.2 3.2 68 2.4 W 11 15 6 8 1027.1 1027.5 0.0
20/11:00am 8.7 6.2 4.9 77 1.7 W 7 11 4 6 1027.2 1027.6 0.0
20/10:30am 7.8 5.2 4.4 79 1.5 NW 7 9 4 5 1027.3 1027.7 0.0
20/10:00am 6.9 4.6 4.6 85 1.0 NW 6 7 3 4 1027.1 1027.5 0.0
20/09:30am 6.0 3.9 5.6 97 0.2 NW 6 7 3 4 1027.0 1027.4 0.0
20/09:20am 5.7 3.3 5.4 98 0.1 NNW 7 7 4 4 1026.8 1027.2 0.0
20/09:00am 4.4 2.7 4.0 97 0.2 NNW 2 7 1 4 1026.8 1027.2 0.0
20/08:30am 3.4 0.7 2.8 96 0.2 W 6 6 3 3 1026.8 1027.2 0.0
20/08:00am 3.4 1.9 3.0 97 0.2 CALM 0 0 0 0 1026.8 1027.2 0.0
20/07:30am 3.0 1.4 2.4 96 0.2 CALM 0 0 0 0 1026.5 1026.9 0.0
20/07:21am 3.3 1.7 2.6 95 0.3 CALM 0 0 0 0 1026.5 1026.9 0.0
20/07:03am 3.6 2.1 3.0 96 0.2 CALM 0 0 0 0 1026.3 1026.7 0.0
20/07:00am 3.7 2.2 3.1 96 0.2 CALM 0 0 0 0 1026.3 1026.7 0.0
20/06:43am 3.7 2.2 3.1 96 0.2 CALM 0 0 0 0 1026.3 1026.7 0.0
20/06:30am 3.7 2.2 3.1 96 0.2 CALM 0 0 0 0 1026.2 1026.6 0.0
20/06:00am 4.3 1.8 3.7 96 0.3 NE 6 7 3 4 1026.0 1026.4 0.0
20/05:30am 4.0 1.2 3.1 94 0.4 NE 7 9 4 5 1025.9 1026.3 0.0
20/05:00am 4.6 2.1 3.9 95 0.3 E 6 9 3 5 1026.0 1026.4 0.0
20/04:30am 4.5 2.0 3.6 94 0.4 S 6 6 3 3 1026.0 1026.4 0.0
20/04:00am 4.8 2.3 3.9 94 0.4 SE 6 7 3 4 1026.0 1026.4 0.0
20/03:30am 4.8 2.4 4.2 96 0.3 S 6 6 3 3 1026.1 1026.5 0.0
20/03:00am 4.7 2.2 3.8 94 0.4 SSW 6 6 3 3 1026.2 1026.6 0.0
20/02:30am 4.8 2.7 3.8 93 0.4 SSW 4 6 2 3 1026.1 1026.5 0.0
20/02:00am 5.5 4.3 4.5 93 0.4 CALM 0 0 0 0 1026.2 1026.6 0.0
20/01:30am 5.3 4.1 4.4 94 0.4 CALM 0 0 0 0 1026.2 1026.6 0.0
20/01:00am 5.5 3.0 4.6 94 0.4 SSW 7 11 4 6 1026.3 1026.7 0.0
20/12:30am 5.6 4.4 4.7 94 0.4 CALM 0 0 0 0 1026.5 1026.9 0.0
20/12:00am 5.5 4.3 4.6 94 0.4 CALM 0 0 0 0 1026.5 1026.9 0.0
 
Date/Time
EST
Temp
°C
App
Temp
°C
Dew
Point
°C
Rel
Hum
%
Delta-T
°C
Wind Press
QNH
hPa
Press
MSL
hPa
Rain since
9am
mm
Dir  Spd
km/h
Gust
km/h
Spd
kts
Gust
kts
19/11:30pm 5.5 4.3 4.5 93 0.4 CALM 0 0 0 0 1026.7 1027.1 0.0
19/11:00pm 5.6 3.3 4.7 94 0.4 E 6 7 3 4 1026.6 1027.0 0.0
19/10:30pm 5.6 3.6 4.4 92 0.5 SSE 4 7 2 4 1026.6 1027.0 0.0
19/10:00pm 6.1 4.9 4.6 90 0.7 CALM 0 0 0 0 1026.6 1027.0 0.0
19/09:30pm 6.4 5.2 4.7 89 0.7 CALM 0 0 0 0 1026.7 1027.1 0.0
19/09:00pm 6.6 5.4 4.8 88 0.8 CALM 0 0 0 0 1026.8 1027.2 0.0
19/08:30pm 6.5 5.3 4.7 88 0.8 CALM 0 0 0 0 1026.9 1027.3 0.0
19/08:00pm 6.4 4.5 4.7 89 0.7 NE 4 6 2 3 1026.8 1027.2 0.0
19/07:30pm 6.8 5.7 5.0 88 0.8 CALM 0 2 0 1 1026.9 1027.3 0.0
19/07:00pm 6.9 4.4 4.7 86 1.0 SSW 7 9 4 5 1026.8 1027.2 0.0
19/06:30pm 6.9 4.6 4.6 85 1.0 S 6 7 3 4 1026.8 1027.2 0.0
19/06:00pm 7.1 4.2 4.6 84 1.1 SW 9 9 5 5 1026.6 1027.0 0.0
19/05:30pm 7.5 4.6 4.8 83 1.2 SSW 9 13 5 7 1026.5 1026.9 0.0
19/05:00pm 8.1 5.9 5.4 83 1.2 SSE 6 7 3 4 1026.4 1026.8 0.0
19/04:30pm 8.8 5.9 4.8 76 1.8 ESE 9 11 5 6 1026.3 1026.7 0.0
19/04:00pm 9.0 5.8 5.2 77 1.7 ESE 11 13 6 7 1026.2 1026.6 0.0
19/03:30pm 10.1 7.2 2.7 60 3.2 SSE 7 11 4 6 1026.2 1026.6 0.0
19/03:00pm 9.4 6.7 2.9 64 2.8 WSW 6 9 3 5 1026.2 1026.6 0.0
19/02:30pm 9.4 6.6 3.2 65 2.7 SW 7 13 4 7 1026.4 1026.8 0.0
19/02:00pm 9.8 6.2 3.1 63 2.9 W 11 19 6 10 1026.5 1026.9 0.0
19/01:30pm 9.9 6.9 4.1 67 2.6 WSW 9 15 5 8 1026.7 1027.1 0.0
19/01:00pm 8.9 5.4 3.7 70 2.3 WSW 11 15 6 8 1027.1 1027.5 0.0
19/12:30pm 8.9 5.9 3.9 71 2.2 WSW 9 17 5 9 1027.2 1027.6 0.0
19/12:00pm 8.7 5.8 4.5 75 1.9 W 9 11 5 6 1027.6 1028.0 0.0
19/11:30am 8.4 5.9 4.8 78 1.6 WNW 7 9 4 5 1027.7 1028.1 0.0
19/11:00am 7.7 5.3 4.3 79 1.5 WSW 6 9 3 5 1027.9 1028.4 0.0
19/10:30am 6.6 4.1 4.6 87 0.9 W 7 11 4 6 1027.7 1028.1 0.0
19/10:00am 5.6 3.3 4.6 93 0.4 WSW 6 7 3 4 1027.5 1027.9 0.0
19/09:30am 4.0 2.6 3.7 98 0.1 CALM 0 4 0 2 1027.2 1027.6 0.0
19/09:00am 2.6 -0.2 2.3 98 0.1 NW 6 7 3 4 1027.0 1027.4 3.2
19/08:30am 1.3 -0.9 0.9 97 0.2 WNW 2 6 1 3 1026.6 1027.0 3.2
19/08:00am 1.4 -1.8 1.0 97 0.2 NNW 7 9 4 5 1026.4 1026.8 3.2
19/07:30am 1.3 -2.3 0.9 97 0.2 N 9 9 5 5 1026.2 1026.6 3.2
19/07:13am 0.8 -3.2 0.4 97 0.1 N 11 11 6 6 1026.0 1026.4 3.2
19/07:00am 0.5 -3.2 -0.1 96 0.2 NNW 9 9 5 5 1026.1 1026.5 3.2
19/06:54am 0.9 -2.3 0.5 97 0.1 NNW 7 9 4 5 1026.0 1026.4 3.2
19/06:30am 0.9 -1.0 0.3 96 0.2 CALM 0 0 0 0 1025.6 1026.0 3.2
19/06:00am 0.7 -3.0 0.1 96 0.2 N 9 9 5 5 1025.3 1025.7 3.2
19/05:30am 1.4 -1.8 0.8 96 0.2 NNW 7 11 4 6 1025.2 1025.6 3.2
19/05:18am 1.5 -1.7 0.9 96 0.2 NNW 7 11 4 6 1025.1 1025.5 3.2
19/05:05am 2.2 0.5 1.6 96 0.2 CALM 0 0 0 0 1025.1 1025.5 3.2
19/05:00am 2.3 0.6 1.9 97 0.2 CALM 0 0 0 0 1025.1 1025.5 3.2
19/04:30am 2.3 0.6 1.9 97 0.2 CALM 0 0 0 0 1025.2 1025.6 3.2
19/04:29am 2.2 0.5 1.8 97 0.2 CALM 0 0 0 0 1025.2 1025.6 3.2
19/04:00am 1.9 0.1 1.3 96 0.2 CALM 0 0 0 0 1025.0 1025.4 3.2
19/03:30am 2.2 -0.3 1.6 96 0.2 N 4 6 2 3 1024.9 1025.3 3.2
19/03:00am 1.3 -1.7 0.6 95 0.3 NNW 6 9 3 5 1025.0 1025.4 3.2
19/02:37am 2.2 0.1 1.5 95 0.3 NW 2 9 1 5 1024.9 1025.3 3.0
19/02:30am 2.7 1.0 2.0 95 0.3 CALM 0 0 0 0 1024.9 1025.3 3.0
19/02:00am 2.9 -0.1 2.2 95 0.3 WNW 7 9 4 5 1024.8 1025.2 3.0
19/01:30am 2.6 -0.8 1.7 94 0.4 W 9 11 5 6 1024.6 1025.0 3.0
19/01:00am 2.8 -1.0 1.9 94 0.4 WNW 11 13 6 7 1024.6 1025.0 3.0
19/12:30am 2.9 -0.4 2.2 95 0.3 WNW 9 11 5 6 1024.5 1024.8 3.0
19/12:00am 2.4 -0.6 1.7 95 0.3 W 7 7 4 4 1024.8 1025.2 3.0
 
Date/Time
EST
Temp
°C
App
Temp
°C
Dew
Point
°C
Rel
Hum
%
Delta-T
°C
Wind Press
QNH
hPa
Press
MSL
hPa
Rain since
9am
mm
Dir  Spd
km/h
Gust
km/h
Spd
kts
Gust
kts
18/11:30pm 2.9 -0.4 2.2 95 0.3 NW 9 11 5 6 1024.8 1025.2 3.0
18/11:00pm 3.0 0.0 1.8 92 0.5 NNW 7 9 4 5 1024.7 1025.1 3.0
18/10:30pm 3.8 1.1 2.6 92 0.5 W 6 6 3 3 1024.5 1024.8 3.0
18/10:00pm 3.9 1.2 2.4 90 0.6 WNW 6 7 3 4 1024.4 1024.7 3.0
18/09:30pm 4.2 0.9 2.7 90 0.6 W 9 11 5 6 1024.4 1024.7 3.0
18/09:00pm 4.3 1.0 2.7 89 0.7 W 9 11 5 6 1024.2 1024.5 3.0
18/08:30pm 4.7 1.1 2.9 88 0.7 SW 11 13 6 7 1023.8 1024.2 3.0
18/08:00pm 4.1 0.4 2.5 89 0.6 WSW 11 13 6 7 1023.7 1024.1 3.0
18/07:30pm 5.0 1.4 3.0 87 0.8 WSW 11 15 6 8 1023.4 1023.8 3.0
18/07:00pm 5.3 1.8 3.6 89 0.7 WSW 11 13 6 7 1023.3 1023.7 3.0
18/06:44pm 6.1 1.9 3.8 85 1.0 WSW 15 19 8 10 1023.2 1023.6 3.0
18/06:30pm 6.3 1.2 4.3 87 0.9 SW 20 33 11 18 1023.2 1023.6 2.8
18/06:26pm 6.5 2.4 4.3 86 1.0 SW 15 32 8 17 1023.1 1023.5 2.6
18/06:00pm 5.7 2.1 3.0 83 1.1 SW 11 15 6 8 1022.8 1023.2 1.8
18/05:30pm 6.9 2.9 3.0 76 1.7 SW 13 19 7 10 1022.4 1022.8 1.8
18/05:00pm 7.4 2.0 2.7 72 2.0 SW 20 24 11 13 1022.0 1022.4 1.8
18/04:30pm 8.3 3.7 3.8 73 2.0 SW 17 22 9 12 1021.8 1022.2 1.8
18/04:00pm 8.1 0.3 2.6 68 2.3 SSW 33 50 18 27 1021.4 1021.8 1.4
18/03:58pm 9.0 1.8 2.8 65 2.7 SSW 30 46 16 25 1021.4 1021.8 1.4
18/03:30pm 10.1 5.3 4.9 70 2.4 WSW 19 26 10 14 1020.9 1021.2 1.4
18/03:00pm 9.9 5.0 5.3 73 2.1 WSW 20 30 11 16 1020.6 1020.9 1.4
18/02:30pm 9.4 5.5 5.4 76 1.8 WSW 15 20 8 11 1020.6 1020.9 1.4
18/02:00pm 9.9 4.7 5.3 73 2.1 W 22 32 12 17 1020.6 1020.9 1.0
18/01:30pm 9.8 5.2 5.8 76 1.9 SW 19 24 10 13 1020.5 1020.8 1.0
18/01:00pm 8.4 5.1 4.6 77 1.7 WSW 11 17 6 9 1020.4 1020.7 1.0
18/12:30pm 7.5 1.8 5.0 84 1.1 WSW 24 32 13 17 1020.8 1021.1 1.0
18/12:00pm 8.3 2.7 5.4 82 1.3 SW 24 32 13 17 1020.6 1020.9 1.0
18/11:59am 8.3 2.8 5.8 84 1.1 SW 24 32 13 17 1020.7 1021.0 1.0
18/11:41am 8.1 2.9 5.6 84 1.1 SW 22 28 12 15 1020.7 1021.0 0.8
18/11:33am 8.6 3.8 5.7 82 1.3 SW 20 24 11 13 1020.6 1020.9 0.8
18/11:30am 8.6 3.8 5.7 82 1.3 SW 20 24 11 13 1020.6 1020.9 0.8
18/11:00am 8.3 3.2 5.9 85 1.1 SW 22 30 12 16 1020.3 1020.6 0.8
18/10:47am 7.5 2.2 5.1 85 1.1 SW 22 32 12 17 1020.3 1020.6 0.8
18/10:30am 7.3 1.7 5.4 88 0.9 SW 24 32 13 17 1020.2 1020.5 0.8
18/10:12am 6.7 1.0 5.0 89 0.8 WSW 24 30 13 16 1019.9 1020.2 0.8
18/10:00am 6.6 -0.6 4.9 89 0.8 WSW 32 43 17 23 1019.7 1020.0 0.8
18/09:50am 7.2 2.1 5.8 91 0.6 WSW 22 41 12 22 1019.4 1019.8 0.4
18/09:46am 7.7 3.7 6.8 94 0.4 WSW 17 22 9 12 1019.3 1019.7 0.0
18/09:36am 7.5 3.9 6.6 94 0.4 W 15 19 8 10 1019.0 1019.4 0.0
18/09:30am 7.4 3.7 6.5 94 0.4 W 15 20 8 11 1018.8 1019.2 0.0
18/09:17am 7.1 2.6 6.0 93 0.5 WSW 19 26 10 14 1018.5 1018.9 0.0
18/09:00am 7.2 2.5 6.0 92 0.5 WSW 20 28 11 15 1018.3 1018.7 2.8
18/08:57am 7.1 2.6 5.9 92 0.5 W 19 28 10 15 1018.2 1018.6 2.6
18/08:30am 7.1 3.7 6.0 93 0.5 W 13 20 7 11 1017.8 1018.2 2.6
18/08:00am 7.2 2.7 6.0 92 0.5 W 19 26 10 14 1017.3 1017.6 2.6
18/07:30am 7.5 2.5 6.3 92 0.6 W 22 30 12 16 1016.8 1017.1 2.6
18/07:23am 7.5 2.5 6.3 92 0.6 W 22 28 12 15 1016.8 1017.1 2.6
18/07:14am 7.5 2.8 6.1 91 0.6 W 20 32 11 17 1016.6 1016.9 2.6
18/07:00am 7.3 2.8 5.9 91 0.6 W 19 24 10 13 1016.4 1016.7 2.6
18/06:30am 7.8 2.8 6.6 92 0.6 W 22 32 12 17 1016.0 1016.3 2.6
18/06:00am 8.3 4.4 6.9 91 0.7 WNW 17 26 9 14 1015.7 1016.0 2.4
18/05:30am 8.5 4.0 7.1 91 0.7 WNW 20 30 11 16 1015.3 1015.6 2.4
18/05:00am 8.5 3.7 7.4 93 0.5 NW 22 30 12 16 1015.1 1015.5 2.4
18/04:41am 8.4 4.2 7.5 94 0.4 NW 19 26 10 14 1015.1 1015.5 2.4
18/04:30am 8.4 4.2 7.5 94 0.4 NW 19 24 10 13 1015.1 1015.5 2.4
18/04:23am 8.4 4.0 7.5 94 0.4 NW 20 28 11 15 1015.1 1015.5 2.4
18/04:03am 8.5 3.7 7.4 93 0.5 NW 22 30 12 16 1015.3 1015.6 1.8
18/04:00am 8.5 3.7 7.4 93 0.5 NW 22 30 12 16 1015.1 1015.5 1.8
18/03:52am 8.5 3.3 7.3 92 0.6 NW 24 30 13 16 1015.1 1015.5 1.4
18/03:41am 8.6 3.4 7.2 91 0.7 NNW 24 30 13 16 1015.1 1015.5 1.2
18/03:40am 8.6 3.4 7.1 90 0.7 NNW 24 32 13 17 1015.1 1015.5 1.2
18/03:30am 8.7 3.4 7.0 89 0.8 NNW 24 35 13 19 1015.0 1015.4 1.0
18/03:21am 8.8 3.1 6.9 88 0.9 NNW 26 35 14 19 1015.0 1015.4 0.8
18/03:00am 9.0 4.0 6.4 84 1.2 NNW 22 32 12 17 1015.0 1015.4 0.2
18/02:30am 9.2 3.0 6.3 82 1.4 NNW 28 33 15 18 1015.0 1015.4 0.0
18/02:00am 9.6 3.2 5.4 75 1.9 NNW 28 35 15 19 1014.9 1015.3 0.0
18/01:30am 9.6 3.1 4.8 72 2.2 NNW 28 32 15 17 1014.9 1015.3 0.0
18/01:00am 9.9 3.7 4.5 69 2.4 NNW 26 32 14 17 1015.3 1015.6 0.0
18/12:30am 9.9 3.4 4.9 71 2.3 NNW 28 37 15 20 1015.7 1016.0 0.0
18/12:00am 9.5 4.0 5.7 77 1.8 NNW 24 30 13 16 1015.9 1016.2 0.0
 
Date/Time
EST
Temp
°C
App
Temp
°C
Dew
Point
°C
Rel
Hum
%
Delta-T
°C
Wind Press
QNH
hPa
Press
MSL
hPa
Rain since
9am
mm
Dir  Spd
km/h
Gust
km/h
Spd
kts
Gust
kts
17/11:30pm 9.6 4.5 5.8 77 1.8 NNW 22 30 12 16 1016.2 1016.5 0.0
17/11:00pm 9.9 4.7 5.7 75 1.9 NNW 22 28 12 15 1016.5 1016.8 0.0
17/10:30pm 10.0 4.8 5.6 74 2.0 NNW 22 28 12 15 1016.6 1016.9 0.0
17/10:00pm 10.2 5.0 5.6 73 2.1 NNW 22 30 12 16 1016.8 1017.1 0.0

Other formats

Comma delimited format used in spreadsheet applications
http://www.bom.gov.au/fwo/IDV60801/IDV60801.94829.axf

JavaScript Object Notation format (JSON) in row-major order
http://www.bom.gov.au/fwo/IDV60801/IDV60801.94829.json

Data quality

Most of these data are generated automatically and are frequently updated. Quality checks on data are not normally performed. It is possible for incorrect values to appear. Refer to information at About Latest Weather Observations and please check the disclaimer before using these data.